sensor_id;sensor_type;location;lat;lon;timestamp;P1;durP1;ratioP1;P2;durP2;ratioP2
73136;SDS011;67767;45.636;11.756;2023-03-19T00:01:06;49.72;;;29.63;;
73136;SDS011;67767;45.636;11.756;2023-03-19T00:03:32;55.95;;;29.65;;
73136;SDS011;67767;45.636;11.756;2023-03-19T00:05:59;61.20;;;31.57;;
73136;SDS011;67767;45.636;11.756;2023-03-19T00:08:26;49.97;;;29.27;;
73136;SDS011;67767;45.636;11.756;2023-03-19T00:10:51;57.58;;;31.25;;
73136;SDS011;67767;45.636;11.756;2023-03-19T00:13:17;51.73;;;30.50;;
73136;SDS011;67767;45.636;11.756;2023-03-19T00:15:44;58.25;;;31.25;;
73136;SDS011;67767;45.636;11.756;2023-03-19T00:18:10;47.28;;;26.45;;
73136;SDS011;67767;45.636;11.756;2023-03-19T00:20:36;58.53;;;33.20;;
73136;SDS011;67767;45.636;11.756;2023-03-19T00:23:02;53.27;;;29.73;;
73136;SDS011;67767;45.636;11.756;2023-03-19T00:25:28;57.60;;;32.00;;
73136;SDS011;67767;45.636;11.756;2023-03-19T00:27:54;78.77;;;39.97;;
73136;SDS011;67767;45.636;11.756;2023-03-19T00:30:20;54.72;;;30.38;;
73136;SDS011;67767;45.636;11.756;2023-03-19T00:32:46;45.42;;;26.10;;
73136;SDS011;67767;45.636;11.756;2023-03-19T00:35:13;45.63;;;25.23;;
73136;SDS011;67767;45.636;11.756;2023-03-19T00:37:39;43.42;;;24.33;;
73136;SDS011;67767;45.636;11.756;2023-03-19T00:40:06;43.97;;;25.88;;
73136;SDS011;67767;45.636;11.756;2023-03-19T00:42:32;43.95;;;24.05;;
73136;SDS011;67767;45.636;11.756;2023-03-19T00:44:58;44.30;;;25.30;;
73136;SDS011;67767;45.636;11.756;2023-03-19T00:47:24;44.27;;;25.13;;
73136;SDS011;67767;45.636;11.756;2023-03-19T00:49:51;43.25;;;24.95;;
73136;SDS011;67767;45.636;11.756;2023-03-19T00:52:16;41.40;;;24.63;;
73136;SDS011;67767;45.636;11.756;2023-03-19T00:54:42;44.50;;;23.45;;
73136;SDS011;67767;45.636;11.756;2023-03-19T00:57:08;42.40;;;23.17;;
73136;SDS011;67767;45.636;11.756;2023-03-19T00:59:34;41.95;;;22.98;;
73136;SDS011;67767;45.636;11.756;2023-03-19T01:02:00;39.33;;;23.13;;
73136;SDS011;67767;45.636;11.756;2023-03-19T01:04:25;41.10;;;23.60;;
73136;SDS011;67767;45.636;11.756;2023-03-19T01:06:51;43.58;;;24.40;;
73136;SDS011;67767;45.636;11.756;2023-03-19T01:09:17;44.47;;;23.03;;
73136;SDS011;67767;45.636;11.756;2023-03-19T01:11:42;41.57;;;24.60;;
73136;SDS011;67767;45.636;11.756;2023-03-19T01:14:08;40.93;;;24.47;;
73136;SDS011;67767;45.636;11.756;2023-03-19T01:16:34;39.67;;;23.23;;
73136;SDS011;67767;45.636;11.756;2023-03-19T01:19:00;38.97;;;22.85;;
73136;SDS011;67767;45.636;11.756;2023-03-19T01:21:26;41.13;;;23.35;;
73136;SDS011;67767;45.636;11.756;2023-03-19T01:23:55;43.00;;;23.33;;
73136;SDS011;67767;45.636;11.756;2023-03-19T01:26:22;40.13;;;23.30;;
73136;SDS011;67767;45.636;11.756;2023-03-19T01:28:47;38.05;;;23.42;;
73136;SDS011;67767;45.636;11.756;2023-03-19T01:31:13;38.17;;;23.57;;
73136;SDS011;67767;45.636;11.756;2023-03-19T01:33:39;39.30;;;23.90;;
73136;SDS011;67767;45.636;11.756;2023-03-19T01:36:06;42.30;;;23.58;;
73136;SDS011;67767;45.636;11.756;2023-03-19T01:38:33;39.90;;;24.35;;
73136;SDS011;67767;45.636;11.756;2023-03-19T01:40:59;42.92;;;24.48;;
73136;SDS011;67767;45.636;11.756;2023-03-19T01:43:26;42.85;;;24.33;;
73136;SDS011;67767;45.636;11.756;2023-03-19T01:48:42;39.60;;;22.52;;
73136;SDS011;67767;45.636;11.756;2023-03-19T01:51:11;43.70;;;23.83;;
73136;SDS011;67767;45.636;11.756;2023-03-19T01:53:40;40.15;;;23.90;;
73136;SDS011;67767;45.636;11.756;2023-03-19T01:56:14;37.13;;;23.67;;
73136;SDS011;67767;45.636;11.756;2023-03-19T01:58:47;38.47;;;22.90;;
73136;SDS011;67767;45.636;11.756;2023-03-19T02:01:16;37.38;;;22.85;;
73136;SDS011;67767;45.636;11.756;2023-03-19T02:03:43;38.42;;;22.63;;
73136;SDS011;67767;45.636;11.756;2023-03-19T02:06:10;38.47;;;22.58;;
73136;SDS011;67767;45.636;11.756;2023-03-19T02:08:38;45.38;;;25.00;;
73136;SDS011;67767;45.636;11.756;2023-03-19T02:11:05;39.57;;;23.13;;
73136;SDS011;67767;45.636;11.756;2023-03-19T02:13:32;40.13;;;23.67;;
73136;SDS011;67767;45.636;11.756;2023-03-19T02:15:59;35.92;;;23.17;;
73136;SDS011;67767;45.636;11.756;2023-03-19T02:18:25;41.30;;;24.13;;
73136;SDS011;67767;45.636;11.756;2023-03-19T02:26:32;39.63;;;22.63;;
73136;SDS011;67767;45.636;11.756;2023-03-19T02:28:59;44.42;;;24.70;;
73136;SDS011;67767;45.636;11.756;2023-03-19T02:31:25;44.63;;;24.10;;
73136;SDS011;67767;45.636;11.756;2023-03-19T02:33:57;36.47;;;21.90;;
73136;SDS011;67767;45.636;11.756;2023-03-19T02:36:32;65.22;;;28.63;;
73136;SDS011;67767;45.636;11.756;2023-03-19T02:39:02;241.73;;;64.07;;
73136;SDS011;67767;45.636;11.756;2023-03-19T02:41:31;158.07;;;48.45;;
73136;SDS011;67767;45.636;11.756;2023-03-19T02:43:58;130.60;;;43.45;;
73136;SDS011;67767;45.636;11.756;2023-03-19T02:46:27;67.90;;;31.10;;
73136;SDS011;67767;45.636;11.756;2023-03-19T02:48:53;59.40;;;27.25;;
73136;SDS011;67767;45.636;11.756;2023-03-19T02:51:18;57.97;;;28.27;;
73136;SDS011;67767;45.636;11.756;2023-03-19T02:53:44;49.53;;;26.52;;
73136;SDS011;67767;45.636;11.756;2023-03-19T02:56:10;41.38;;;24.40;;
73136;SDS011;67767;45.636;11.756;2023-03-19T02:58:36;40.70;;;24.23;;
73136;SDS011;67767;45.636;11.756;2023-03-19T03:01:02;44.88;;;25.40;;
73136;SDS011;67767;45.636;11.756;2023-03-19T03:03:28;48.83;;;25.08;;
73136;SDS011;67767;45.636;11.756;2023-03-19T03:05:54;41.88;;;24.88;;
73136;SDS011;67767;45.636;11.756;2023-03-19T03:08:20;40.83;;;24.77;;
73136;SDS011;67767;45.636;11.756;2023-03-19T03:10:46;40.53;;;25.55;;
73136;SDS011;67767;45.636;11.756;2023-03-19T03:13:11;41.90;;;25.57;;
73136;SDS011;67767;45.636;11.756;2023-03-19T03:15:37;40.90;;;24.77;;
73136;SDS011;67767;45.636;11.756;2023-03-19T03:18:03;43.35;;;24.90;;
73136;SDS011;67767;45.636;11.756;2023-03-19T03:20:30;41.63;;;23.67;;
73136;SDS011;67767;45.636;11.756;2023-03-19T03:22:55;39.28;;;24.40;;
73136;SDS011;67767;45.636;11.756;2023-03-19T03:25:21;41.13;;;23.50;;
73136;SDS011;67767;45.636;11.756;2023-03-19T03:27:47;40.97;;;24.23;;
73136;SDS011;67767;45.636;11.756;2023-03-19T03:30:13;38.33;;;24.45;;
73136;SDS011;67767;45.636;11.756;2023-03-19T03:32:40;41.50;;;24.00;;
73136;SDS011;67767;45.636;11.756;2023-03-19T03:35:06;35.57;;;21.43;;
73136;SDS011;67767;45.636;11.756;2023-03-19T03:37:33;37.97;;;23.23;;
73136;SDS011;67767;45.636;11.756;2023-03-19T03:39:59;37.03;;;23.35;;
73136;SDS011;67767;45.636;11.756;2023-03-19T03:42:30;40.25;;;24.02;;
73136;SDS011;67767;45.636;11.756;2023-03-19T03:44:56;36.38;;;22.88;;
73136;SDS011;67767;45.636;11.756;2023-03-19T03:47:22;34.30;;;22.23;;
73136;SDS011;67767;45.636;11.756;2023-03-19T03:49:48;36.77;;;22.73;;
73136;SDS011;67767;45.636;11.756;2023-03-19T03:52:13;40.87;;;23.67;;
73136;SDS011;67767;45.636;11.756;2023-03-19T03:54:39;37.80;;;22.90;;
73136;SDS011;67767;45.636;11.756;2023-03-19T03:57:05;41.13;;;22.37;;
73136;SDS011;67767;45.636;11.756;2023-03-19T03:59:32;39.25;;;23.98;;
73136;SDS011;67767;45.636;11.756;2023-03-19T04:01:57;37.73;;;23.77;;
73136;SDS011;67767;45.636;11.756;2023-03-19T04:04:23;39.58;;;24.27;;
73136;SDS011;67767;45.636;11.756;2023-03-19T04:06:49;39.42;;;23.42;;
73136;SDS011;67767;45.636;11.756;2023-03-19T04:09:15;41.00;;;23.73;;
73136;SDS011;67767;45.636;11.756;2023-03-19T04:11:41;40.10;;;23.52;;
73136;SDS011;67767;45.636;11.756;2023-03-19T04:14:06;39.67;;;23.15;;
73136;SDS011;67767;45.636;11.756;2023-03-19T04:16:32;37.17;;;23.33;;
73136;SDS011;67767;45.636;11.756;2023-03-19T04:18:58;37.83;;;22.42;;
73136;SDS011;67767;45.636;11.756;2023-03-19T04:21:24;42.77;;;24.23;;
73136;SDS011;67767;45.636;11.756;2023-03-19T04:23:50;39.40;;;24.17;;
73136;SDS011;67767;45.636;11.756;2023-03-19T04:26:16;40.30;;;23.92;;
73136;SDS011;67767;45.636;11.756;2023-03-19T04:28:41;39.70;;;24.97;;
73136;SDS011;67767;45.636;11.756;2023-03-19T04:31:07;36.97;;;23.73;;
73136;SDS011;67767;45.636;11.756;2023-03-19T04:33:34;41.15;;;25.25;;
73136;SDS011;67767;45.636;11.756;2023-03-19T04:36:01;42.77;;;24.97;;
73136;SDS011;67767;45.636;11.756;2023-03-19T04:38:27;40.10;;;25.13;;
73136;SDS011;67767;45.636;11.756;2023-03-19T04:40:56;37.90;;;24.00;;
73136;SDS011;67767;45.636;11.756;2023-03-19T04:43:22;42.08;;;24.50;;
73136;SDS011;67767;45.636;11.756;2023-03-19T04:45:48;41.63;;;26.10;;
73136;SDS011;67767;45.636;11.756;2023-03-19T04:48:14;43.03;;;25.90;;
73136;SDS011;67767;45.636;11.756;2023-03-19T04:50:42;43.40;;;25.30;;
73136;SDS011;67767;45.636;11.756;2023-03-19T04:53:09;44.42;;;26.05;;
73136;SDS011;67767;45.636;11.756;2023-03-19T04:55:35;42.00;;;25.35;;
73136;SDS011;67767;45.636;11.756;2023-03-19T04:58:01;39.33;;;25.20;;
73136;SDS011;67767;45.636;11.756;2023-03-19T05:00:27;44.35;;;25.65;;
73136;SDS011;67767;45.636;11.756;2023-03-19T05:02:54;40.63;;;26.05;;
73136;SDS011;67767;45.636;11.756;2023-03-19T05:05:20;40.50;;;24.67;;
73136;SDS011;67767;45.636;11.756;2023-03-19T05:07:46;40.87;;;24.30;;
73136;SDS011;67767;45.636;11.756;2023-03-19T05:10:12;39.33;;;24.13;;
73136;SDS011;67767;45.636;11.756;2023-03-19T05:12:37;40.10;;;23.93;;
73136;SDS011;67767;45.636;11.756;2023-03-19T05:15:04;41.20;;;24.58;;
73136;SDS011;67767;45.636;11.756;2023-03-19T05:17:30;36.72;;;22.80;;
73136;SDS011;67767;45.636;11.756;2023-03-19T05:19:56;38.00;;;23.33;;
73136;SDS011;67767;45.636;11.756;2023-03-19T05:22:22;39.83;;;23.77;;
73136;SDS011;67767;45.636;11.756;2023-03-19T05:24:49;34.15;;;21.08;;
73136;SDS011;67767;45.636;11.756;2023-03-19T05:27:15;36.70;;;21.23;;
73136;SDS011;67767;45.636;11.756;2023-03-19T05:29:40;36.83;;;20.43;;
73136;SDS011;67767;45.636;11.756;2023-03-19T05:32:07;34.95;;;21.45;;
73136;SDS011;67767;45.636;11.756;2023-03-19T05:34:32;35.70;;;20.85;;
73136;SDS011;67767;45.636;11.756;2023-03-19T05:36:58;33.57;;;20.27;;
73136;SDS011;67767;45.636;11.756;2023-03-19T05:39:24;34.58;;;20.27;;
73136;SDS011;67767;45.636;11.756;2023-03-19T05:41:50;33.57;;;20.07;;
73136;SDS011;67767;45.636;11.756;2023-03-19T05:44:15;37.47;;;22.15;;
73136;SDS011;67767;45.636;11.756;2023-03-19T05:46:41;34.30;;;21.40;;
73136;SDS011;67767;45.636;11.756;2023-03-19T05:49:07;37.35;;;22.65;;
73136;SDS011;67767;45.636;11.756;2023-03-19T05:51:33;33.08;;;19.73;;
73136;SDS011;67767;45.636;11.756;2023-03-19T05:54:00;37.47;;;20.15;;
73136;SDS011;67767;45.636;11.756;2023-03-19T05:56:25;34.73;;;20.20;;
73136;SDS011;67767;45.636;11.756;2023-03-19T05:58:51;37.83;;;20.58;;
73136;SDS011;67767;45.636;11.756;2023-03-19T06:01:17;37.57;;;21.70;;
73136;SDS011;67767;45.636;11.756;2023-03-19T06:03:43;35.85;;;20.60;;
73136;SDS011;67767;45.636;11.756;2023-03-19T06:06:08;35.13;;;20.13;;
73136;SDS011;67767;45.636;11.756;2023-03-19T06:08:34;35.03;;;20.30;;
73136;SDS011;67767;45.636;11.756;2023-03-19T06:11:00;34.77;;;19.10;;
73136;SDS011;67767;45.636;11.756;2023-03-19T06:13:25;33.70;;;21.40;;
73136;SDS011;67767;45.636;11.756;2023-03-19T06:15:51;32.80;;;20.23;;
73136;SDS011;67767;45.636;11.756;2023-03-19T06:18:17;37.65;;;20.15;;
73136;SDS011;67767;45.636;11.756;2023-03-19T06:20:43;32.65;;;19.75;;
73136;SDS011;67767;45.636;11.756;2023-03-19T06:23:10;33.65;;;20.00;;
73136;SDS011;67767;45.636;11.756;2023-03-19T06:25:36;31.30;;;19.70;;
73136;SDS011;67767;45.636;11.756;2023-03-19T06:28:02;30.67;;;20.00;;
73136;SDS011;67767;45.636;11.756;2023-03-19T06:30:29;32.95;;;20.38;;
73136;SDS011;67767;45.636;11.756;2023-03-19T06:32:54;32.80;;;20.00;;
73136;SDS011;67767;45.636;11.756;2023-03-19T06:35:20;35.85;;;20.35;;
73136;SDS011;67767;45.636;11.756;2023-03-19T06:37:46;35.27;;;20.73;;
73136;SDS011;67767;45.636;11.756;2023-03-19T06:40:13;33.17;;;19.83;;
73136;SDS011;67767;45.636;11.756;2023-03-19T06:42:39;34.80;;;20.42;;
73136;SDS011;67767;45.636;11.756;2023-03-19T06:45:08;33.03;;;19.33;;
73136;SDS011;67767;45.636;11.756;2023-03-19T06:47:34;30.83;;;18.90;;
73136;SDS011;67767;45.636;11.756;2023-03-19T06:50:00;31.37;;;19.27;;
73136;SDS011;67767;45.636;11.756;2023-03-19T06:52:25;31.63;;;19.85;;
73136;SDS011;67767;45.636;11.756;2023-03-19T06:54:51;29.50;;;18.03;;
73136;SDS011;67767;45.636;11.756;2023-03-19T06:57:17;31.52;;;18.30;;
73136;SDS011;67767;45.636;11.756;2023-03-19T06:59:42;27.43;;;16.80;;
73136;SDS011;67767;45.636;11.756;2023-03-19T07:02:09;30.80;;;17.85;;
73136;SDS011;67767;45.636;11.756;2023-03-19T07:04:36;27.67;;;16.90;;
73136;SDS011;67767;45.636;11.756;2023-03-19T07:07:01;27.67;;;16.48;;
73136;SDS011;67767;45.636;11.756;2023-03-19T07:09:29;28.35;;;17.67;;
73136;SDS011;67767;45.636;11.756;2023-03-19T07:11:55;26.47;;;15.57;;
73136;SDS011;67767;45.636;11.756;2023-03-19T07:14:22;26.20;;;16.27;;
73136;SDS011;67767;45.636;11.756;2023-03-19T07:16:48;30.13;;;17.00;;
73136;SDS011;67767;45.636;11.756;2023-03-19T07:19:14;26.93;;;16.60;;
73136;SDS011;67767;45.636;11.756;2023-03-19T07:21:40;30.05;;;17.50;;
73136;SDS011;67767;45.636;11.756;2023-03-19T07:24:05;25.35;;;16.85;;
73136;SDS011;67767;45.636;11.756;2023-03-19T07:26:31;29.43;;;16.87;;
73136;SDS011;67767;45.636;11.756;2023-03-19T07:28:57;26.23;;;16.42;;
73136;SDS011;67767;45.636;11.756;2023-03-19T07:31:23;27.37;;;16.53;;
73136;SDS011;67767;45.636;11.756;2023-03-19T07:33:49;30.23;;;17.35;;
73136;SDS011;67767;45.636;11.756;2023-03-19T07:36:14;31.83;;;19.03;;
73136;SDS011;67767;45.636;11.756;2023-03-19T07:38:40;34.85;;;19.20;;
73136;SDS011;67767;45.636;11.756;2023-03-19T07:41:06;27.10;;;16.65;;
73136;SDS011;67767;45.636;11.756;2023-03-19T07:43:31;27.47;;;17.17;;
73136;SDS011;67767;45.636;11.756;2023-03-19T07:45:57;30.00;;;18.08;;
73136;SDS011;67767;45.636;11.756;2023-03-19T07:48:24;31.80;;;17.83;;
73136;SDS011;67767;45.636;11.756;2023-03-19T07:50:50;30.25;;;18.13;;
73136;SDS011;67767;45.636;11.756;2023-03-19T07:53:15;28.52;;;16.75;;
73136;SDS011;67767;45.636;11.756;2023-03-19T07:55:41;25.77;;;15.67;;
73136;SDS011;67767;45.636;11.756;2023-03-19T07:58:07;26.35;;;15.88;;
73136;SDS011;67767;45.636;11.756;2023-03-19T08:00:32;26.97;;;15.80;;
73136;SDS011;67767;45.636;11.756;2023-03-19T08:02:58;27.05;;;15.90;;
73136;SDS011;67767;45.636;11.756;2023-03-19T08:05:24;24.87;;;15.40;;
73136;SDS011;67767;45.636;11.756;2023-03-19T08:07:49;24.20;;;14.82;;
73136;SDS011;67767;45.636;11.756;2023-03-19T08:10:15;27.27;;;15.33;;
73136;SDS011;67767;45.636;11.756;2023-03-19T08:12:41;22.70;;;14.13;;
73136;SDS011;67767;45.636;11.756;2023-03-19T08:15:08;26.08;;;14.52;;
73136;SDS011;67767;45.636;11.756;2023-03-19T08:17:35;27.43;;;15.87;;
73136;SDS011;67767;45.636;11.756;2023-03-19T08:20:05;24.50;;;14.43;;
73136;SDS011;67767;45.636;11.756;2023-03-19T08:22:33;23.75;;;13.68;;
73136;SDS011;67767;45.636;11.756;2023-03-19T08:25:00;24.40;;;14.23;;
73136;SDS011;67767;45.636;11.756;2023-03-19T08:27:26;24.60;;;14.40;;
73136;SDS011;67767;45.636;11.756;2023-03-19T08:29:52;24.43;;;14.00;;
73136;SDS011;67767;45.636;11.756;2023-03-19T08:32:18;23.55;;;13.95;;
73136;SDS011;67767;45.636;11.756;2023-03-19T08:34:43;24.17;;;14.70;;
73136;SDS011;67767;45.636;11.756;2023-03-19T08:37:09;25.05;;;15.35;;
73136;SDS011;67767;45.636;11.756;2023-03-19T08:39:35;23.00;;;15.10;;
73136;SDS011;67767;45.636;11.756;2023-03-19T08:42:01;25.00;;;15.57;;
73136;SDS011;67767;45.636;11.756;2023-03-19T08:44:26;25.63;;;15.53;;
73136;SDS011;67767;45.636;11.756;2023-03-19T08:46:52;23.88;;;15.50;;
73136;SDS011;67767;45.636;11.756;2023-03-19T08:49:18;27.27;;;15.37;;
73136;SDS011;67767;45.636;11.756;2023-03-19T08:51:44;23.02;;;14.60;;
73136;SDS011;67767;45.636;11.756;2023-03-19T08:54:09;24.52;;;14.25;;
73136;SDS011;67767;45.636;11.756;2023-03-19T08:56:37;23.90;;;15.10;;
73136;SDS011;67767;45.636;11.756;2023-03-19T08:59:03;25.40;;;13.90;;
73136;SDS011;67767;45.636;11.756;2023-03-19T09:01:29;22.40;;;13.07;;
73136;SDS011;67767;45.636;11.756;2023-03-19T09:03:55;23.60;;;13.40;;
73136;SDS011;67767;45.636;11.756;2023-03-19T09:06:20;19.85;;;13.25;;
73136;SDS011;67767;45.636;11.756;2023-03-19T09:08:46;23.70;;;14.20;;
73136;SDS011;67767;45.636;11.756;2023-03-19T09:11:12;20.88;;;13.80;;
73136;SDS011;67767;45.636;11.756;2023-03-19T09:13:38;20.48;;;13.13;;
73136;SDS011;67767;45.636;11.756;2023-03-19T09:16:05;24.52;;;13.95;;
73136;SDS011;67767;45.636;11.756;2023-03-19T09:18:31;22.97;;;13.67;;
73136;SDS011;67767;45.636;11.756;2023-03-19T09:20:57;19.95;;;13.40;;
73136;SDS011;67767;45.636;11.756;2023-03-19T09:23:24;17.25;;;11.68;;
73136;SDS011;67767;45.636;11.756;2023-03-19T09:25:50;17.75;;;11.65;;
73136;SDS011;67767;45.636;11.756;2023-03-19T09:28:16;20.67;;;12.77;;
73136;SDS011;67767;45.636;11.756;2023-03-19T09:30:46;20.48;;;13.23;;
73136;SDS011;67767;45.636;11.756;2023-03-19T09:33:13;19.30;;;11.98;;
73136;SDS011;67767;45.636;11.756;2023-03-19T09:35:40;20.35;;;12.25;;
73136;SDS011;67767;45.636;11.756;2023-03-19T09:38:06;22.63;;;12.38;;
73136;SDS011;67767;45.636;11.756;2023-03-19T09:45:41;19.08;;;11.82;;
73136;SDS011;67767;45.636;11.756;2023-03-19T09:48:14;22.00;;;12.25;;
73136;SDS011;67767;45.636;11.756;2023-03-19T09:50:45;19.70;;;11.20;;
73136;SDS011;67767;45.636;11.756;2023-03-19T09:53:23;18.55;;;11.50;;
73136;SDS011;67767;45.636;11.756;2023-03-19T09:56:04;19.75;;;11.25;;
73136;SDS011;67767;45.636;11.756;2023-03-19T09:58:34;22.40;;;11.50;;
73136;SDS011;67767;45.636;11.756;2023-03-19T10:01:00;18.90;;;11.20;;
73136;SDS011;67767;45.636;11.756;2023-03-19T10:11:31;19.30;;;10.85;;
73136;SDS011;67767;45.636;11.756;2023-03-19T10:17:06;17.27;;;10.67;;
73136;SDS011;67767;45.636;11.756;2023-03-19T10:19:49;18.20;;;10.25;;
73136;SDS011;67767;45.636;11.756;2023-03-19T10:22:21;19.45;;;10.80;;
73136;SDS011;67767;45.636;11.756;2023-03-19T10:24:52;17.55;;;10.27;;
73136;SDS011;67767;45.636;11.756;2023-03-19T10:27:21;19.48;;;11.70;;
73136;SDS011;67767;45.636;11.756;2023-03-19T10:29:50;21.33;;;11.93;;
73136;SDS011;67767;45.636;11.756;2023-03-19T10:34:49;20.45;;;12.20;;
73136;SDS011;67767;45.636;11.756;2023-03-19T10:37:22;22.85;;;12.50;;
73136;SDS011;67767;45.636;11.756;2023-03-19T10:39:50;18.08;;;11.75;;
73136;SDS011;67767;45.636;11.756;2023-03-19T10:45:31;18.58;;;12.90;;
73136;SDS011;67767;45.636;11.756;2023-03-19T10:48:01;17.00;;;9.57;;
73136;SDS011;67767;45.636;11.756;2023-03-19T10:50:30;17.80;;;10.73;;
73136;SDS011;67767;45.636;11.756;2023-03-19T10:58:18;18.90;;;11.55;;
73136;SDS011;67767;45.636;11.756;2023-03-19T11:00:48;18.67;;;11.27;;
73136;SDS011;67767;45.636;11.756;2023-03-19T11:06:16;19.55;;;10.52;;
73136;SDS011;67767;45.636;11.756;2023-03-19T11:08:56;18.75;;;10.73;;
73136;SDS011;67767;45.636;11.756;2023-03-19T11:11:25;19.00;;;11.00;;
73136;SDS011;67767;45.636;11.756;2023-03-19T11:14:08;18.63;;;10.27;;
73136;SDS011;67767;45.636;11.756;2023-03-19T11:17:01;18.97;;;10.80;;
73136;SDS011;67767;45.636;11.756;2023-03-19T11:19:31;20.05;;;11.30;;
73136;SDS011;67767;45.636;11.756;2023-03-19T11:24:32;16.05;;;9.00;;
73136;SDS011;67767;45.636;11.756;2023-03-19T11:27:00;16.83;;;9.15;;
73136;SDS011;67767;45.636;11.756;2023-03-19T11:29:27;17.63;;;9.43;;
73136;SDS011;67767;45.636;11.756;2023-03-19T11:53:55;16.40;;;9.85;;
73136;SDS011;67767;45.636;11.756;2023-03-19T11:56:45;16.03;;;10.57;;
73136;SDS011;67767;45.636;11.756;2023-03-19T12:16:00;15.98;;;9.70;;
73136;SDS011;67767;45.636;11.756;2023-03-19T12:30:00;15.70;;;9.07;;
73136;SDS011;67767;45.636;11.756;2023-03-19T12:35:32;16.52;;;9.13;;
73136;SDS011;67767;45.636;11.756;2023-03-19T12:40:46;16.90;;;8.90;;
73136;SDS011;67767;45.636;11.756;2023-03-19T12:43:33;13.93;;;8.50;;
73136;SDS011;67767;45.636;11.756;2023-03-19T12:46:06;14.47;;;8.10;;
73136;SDS011;67767;45.636;11.756;2023-03-19T12:48:43;14.38;;;8.90;;
73136;SDS011;67767;45.636;11.756;2023-03-19T12:51:15;14.57;;;8.95;;
73136;SDS011;67767;45.636;11.756;2023-03-19T12:53:58;15.20;;;8.90;;
73136;SDS011;67767;45.636;11.756;2023-03-19T12:56:38;14.50;;;8.75;;
73136;SDS011;67767;45.636;11.756;2023-03-19T12:59:51;14.30;;;8.63;;
73136;SDS011;67767;45.636;11.756;2023-03-19T13:08:31;13.98;;;9.05;;
73136;SDS011;67767;45.636;11.756;2023-03-19T13:11:04;14.25;;;8.65;;
73136;SDS011;67767;45.636;11.756;2023-03-19T13:21:52;15.10;;;8.90;;
73136;SDS011;67767;45.636;11.756;2023-03-19T13:24:23;13.95;;;8.40;;
73136;SDS011;67767;45.636;11.756;2023-03-19T13:26:56;16.57;;;9.23;;
73136;SDS011;67767;45.636;11.756;2023-03-19T13:29:28;15.52;;;8.95;;
73136;SDS011;67767;45.636;11.756;2023-03-19T13:32:20;13.60;;;9.07;;
73136;SDS011;67767;45.636;11.756;2023-03-19T13:34:48;15.45;;;8.77;;
73136;SDS011;67767;45.636;11.756;2023-03-19T13:37:15;14.03;;;8.87;;
73136;SDS011;67767;45.636;11.756;2023-03-19T13:39:44;16.85;;;9.52;;
73136;SDS011;67767;45.636;11.756;2023-03-19T13:58:17;16.10;;;9.38;;
73136;SDS011;67767;45.636;11.756;2023-03-19T14:01:05;15.53;;;9.47;;
73136;SDS011;67767;45.636;11.756;2023-03-19T14:03:34;15.38;;;10.00;;
73136;SDS011;67767;45.636;11.756;2023-03-19T14:06:03;14.57;;;9.75;;
73136;SDS011;67767;45.636;11.756;2023-03-19T14:08:33;15.07;;;10.20;;
73136;SDS011;67767;45.636;11.756;2023-03-19T14:11:11;16.10;;;10.60;;
73136;SDS011;67767;45.636;11.756;2023-03-19T14:13:52;15.70;;;10.30;;
73136;SDS011;67767;45.636;11.756;2023-03-19T14:16:28;16.77;;;9.68;;
73136;SDS011;67767;45.636;11.756;2023-03-19T14:18:59;15.98;;;10.77;;
73136;SDS011;67767;45.636;11.756;2023-03-19T14:21:47;15.90;;;10.25;;
73136;SDS011;67767;45.636;11.756;2023-03-19T14:24:39;17.60;;;11.18;;
73136;SDS011;67767;45.636;11.756;2023-03-19T14:30:10;16.63;;;11.35;;
73136;SDS011;67767;45.636;11.756;2023-03-19T14:32:45;17.13;;;11.13;;
73136;SDS011;67767;45.636;11.756;2023-03-19T14:35:14;15.15;;;10.75;;
73136;SDS011;67767;45.636;11.756;2023-03-19T14:37:48;19.63;;;11.63;;
73136;SDS011;67767;45.636;11.756;2023-03-19T14:40:26;16.90;;;11.07;;
73136;SDS011;67767;45.636;11.756;2023-03-19T14:43:16;20.05;;;11.73;;
73136;SDS011;67767;45.636;11.756;2023-03-19T14:54:16;18.77;;;11.30;;
73136;SDS011;67767;45.636;11.756;2023-03-19T14:56:48;17.52;;;10.80;;
73136;SDS011;67767;45.636;11.756;2023-03-19T14:59:14;19.40;;;11.85;;
73136;SDS011;67767;45.636;11.756;2023-03-19T15:01:47;24.13;;;12.27;;
73136;SDS011;67767;45.636;11.756;2023-03-19T15:04:15;17.58;;;11.68;;
73136;SDS011;67767;45.636;11.756;2023-03-19T15:06:50;18.00;;;11.63;;
73136;SDS011;67767;45.636;11.756;2023-03-19T15:09:26;19.50;;;11.43;;
73136;SDS011;67767;45.636;11.756;2023-03-19T15:12:19;19.15;;;12.25;;
73136;SDS011;67767;45.636;11.756;2023-03-19T15:17:36;18.25;;;12.02;;
73136;SDS011;67767;45.636;11.756;2023-03-19T15:20:07;20.33;;;11.70;;
73136;SDS011;67767;45.636;11.756;2023-03-19T15:22:53;19.02;;;11.75;;
73136;SDS011;67767;45.636;11.756;2023-03-19T15:25:19;24.52;;;13.20;;
73136;SDS011;67767;45.636;11.756;2023-03-19T15:27:46;20.90;;;12.45;;
73136;SDS011;67767;45.636;11.756;2023-03-19T15:30:36;21.45;;;12.95;;
73136;SDS011;67767;45.636;11.756;2023-03-19T15:33:03;18.20;;;11.80;;
73136;SDS011;67767;45.636;11.756;2023-03-19T15:35:41;21.35;;;12.65;;
73136;SDS011;67767;45.636;11.756;2023-03-19T15:38:10;21.73;;;12.50;;
73136;SDS011;67767;45.636;11.756;2023-03-19T15:40:39;19.95;;;12.13;;
73136;SDS011;67767;45.636;11.756;2023-03-19T15:43:05;20.05;;;12.60;;
73136;SDS011;67767;45.636;11.756;2023-03-19T15:45:35;22.43;;;12.67;;
73136;SDS011;67767;45.636;11.756;2023-03-19T15:48:04;20.70;;;13.18;;
73136;SDS011;67767;45.636;11.756;2023-03-19T15:50:40;22.15;;;13.65;;
73136;SDS011;67767;45.636;11.756;2023-03-19T15:53:10;22.38;;;13.63;;
73136;SDS011;67767;45.636;11.756;2023-03-19T15:55:42;22.25;;;13.82;;
73136;SDS011;67767;45.636;11.756;2023-03-19T15:58:09;24.13;;;12.70;;
73136;SDS011;67767;45.636;11.756;2023-03-19T16:00:39;29.60;;;13.98;;
73136;SDS011;67767;45.636;11.756;2023-03-19T16:03:05;23.92;;;13.02;;
73136;SDS011;67767;45.636;11.756;2023-03-19T16:05:35;22.48;;;12.43;;
73136;SDS011;67767;45.636;11.756;2023-03-19T16:08:22;21.60;;;13.43;;
73136;SDS011;67767;45.636;11.756;2023-03-19T16:10:50;23.65;;;13.38;;
73136;SDS011;67767;45.636;11.756;2023-03-19T16:16:18;21.30;;;12.60;;
73136;SDS011;67767;45.636;11.756;2023-03-19T16:21:16;22.10;;;13.23;;
73136;SDS011;67767;45.636;11.756;2023-03-19T16:23:53;20.63;;;12.32;;
73136;SDS011;67767;45.636;11.756;2023-03-19T16:28:59;21.90;;;13.10;;
73136;SDS011;67767;45.636;11.756;2023-03-19T16:31:39;22.58;;;12.98;;
73136;SDS011;67767;45.636;11.756;2023-03-19T16:34:16;19.50;;;12.47;;
73136;SDS011;67767;45.636;11.756;2023-03-19T16:36:48;19.23;;;13.00;;
73136;SDS011;67767;45.636;11.756;2023-03-19T16:39:21;20.80;;;13.27;;
73136;SDS011;67767;45.636;11.756;2023-03-19T16:42:25;18.98;;;12.32;;
73136;SDS011;67767;45.636;11.756;2023-03-19T16:44:51;21.77;;;13.13;;
73136;SDS011;67767;45.636;11.756;2023-03-19T16:47:16;21.52;;;12.73;;
73136;SDS011;67767;45.636;11.756;2023-03-19T16:49:42;21.10;;;13.40;;